createdAt,value
2023-11-07T00:01:55.250Z,8.38
2023-11-07T00:04:25.918Z,8.88
2023-11-07T00:06:56.895Z,8.80
2023-11-07T00:09:29.389Z,8.63
2023-11-07T00:12:01.829Z,7.60
2023-11-07T00:14:34.239Z,6.55
2023-11-07T00:17:06.381Z,10.93
2023-11-07T00:19:39.145Z,8.00
2023-11-07T00:22:10.283Z,7.47
2023-11-07T00:24:44.278Z,7.25
2023-11-07T00:27:18.191Z,9.73
2023-11-07T00:29:50.307Z,8.98
2023-11-07T00:32:20.580Z,9.85
2023-11-07T00:34:54.016Z,7.57
2023-11-07T00:37:26.004Z,7.85
2023-11-07T00:39:58.609Z,7.32
2023-11-07T00:42:34.889Z,9.60
2023-11-07T00:45:11.852Z,8.55
2023-11-07T00:47:42.932Z,9.23
2023-11-07T00:50:14.159Z,9.45
2023-11-07T00:52:44.945Z,8.55
2023-11-07T00:55:16.559Z,7.40
2023-11-07T00:57:48.760Z,8.45
2023-11-07T01:00:24.605Z,7.85
2023-11-07T01:02:58.523Z,6.35
2023-11-07T01:05:34.344Z,7.88
2023-11-07T01:08:07.980Z,8.27
2023-11-07T01:10:42.629Z,7.07
2023-11-07T01:13:13.529Z,6.60
2023-11-07T01:15:51.836Z,9.13
2023-11-07T01:18:23.216Z,9.30
2023-11-07T01:20:55.327Z,7.25
2023-11-07T01:23:25.931Z,8.50
2023-11-07T01:25:58.472Z,9.45
2023-11-07T01:28:29.836Z,9.77
2023-11-07T01:31:05.034Z,12.82
2023-11-07T01:33:40.740Z,12.63
2023-11-07T01:36:13.123Z,13.13
2023-11-07T01:38:43.730Z,16.00
2023-11-07T01:41:14.771Z,13.57
2023-11-07T01:43:48.053Z,12.30
2023-11-07T01:46:19.143Z,10.73
2023-11-07T01:48:50.616Z,11.23
2023-11-07T01:51:22.788Z,12.63
2023-11-07T01:53:55.700Z,10.07
2023-11-07T01:56:30.799Z,11.07
2023-11-07T01:59:04.152Z,9.18
2023-11-07T02:01:41.331Z,11.65
2023-11-07T02:04:13.103Z,11.35
2023-11-07T02:06:49.102Z,11.63
2023-11-07T02:09:23.536Z,9.57
2023-11-07T02:11:54.419Z,10.60
2023-11-07T02:14:32.119Z,11.38
2023-11-07T02:17:03.645Z,12.52
2023-11-07T02:19:36.982Z,10.10
2023-11-07T02:22:14.959Z,13.40
2023-11-07T02:24:46.204Z,13.43
2023-11-07T02:27:21.258Z,11.45
2023-11-07T02:29:52.773Z,11.00
2023-11-07T02:32:24.459Z,12.75
2023-11-07T02:34:55.006Z,11.73
2023-11-07T02:37:26.056Z,11.95
2023-11-07T02:39:57.939Z,13.40
2023-11-07T02:42:35.764Z,10.18
2023-11-07T02:45:07.051Z,12.60
2023-11-07T02:47:42.289Z,8.90
2023-11-07T02:50:15.769Z,12.93
2023-11-07T02:52:47.831Z,15.38
2023-11-07T02:55:17.754Z,13.88
2023-11-07T02:57:48.653Z,13.05
2023-11-07T03:00:19.391Z,12.63
2023-11-07T03:02:51.971Z,14.20
2023-11-07T03:05:21.984Z,11.85
2023-11-07T03:07:52.188Z,12.27
2023-11-07T03:10:23.318Z,9.93
2023-11-07T03:12:53.978Z,6.82
2023-11-07T03:15:24.276Z,6.38
2023-11-07T03:17:54.563Z,7.93
2023-11-07T03:20:24.543Z,6.03
2023-11-07T03:22:55.320Z,4.97
2023-11-07T03:25:26.019Z,4.93
2023-11-07T03:27:56.906Z,9.23
2023-11-07T03:30:28.525Z,9.48
2023-11-07T03:32:59.574Z,5.30
2023-11-07T03:35:33.279Z,10.63
2023-11-07T03:38:04.149Z,7.00
2023-11-07T03:40:34.766Z,9.02
2023-11-07T03:43:05.622Z,10.90
2023-11-07T03:45:36.333Z,9.88
2023-11-07T03:48:07.500Z,9.20
2023-11-07T03:50:38.261Z,7.18
2023-11-07T03:53:08.667Z,7.00
2023-11-07T03:55:39.830Z,10.43
2023-11-07T03:58:11.143Z,10.98
2023-11-07T04:00:44.649Z,10.82
2023-11-07T04:03:14.985Z,10.70
2023-11-07T04:05:45.348Z,9.52
2023-11-07T04:08:15.551Z,12.02
2023-11-07T04:10:47.171Z,9.80
2023-11-07T04:13:17.849Z,6.05
2023-11-07T04:15:48.214Z,8.40
2023-11-07T04:18:18.394Z,9.35
2023-11-07T04:20:49.863Z,9.55
2023-11-07T04:23:20.760Z,7.70
2023-11-07T04:25:52.833Z,9.50
2023-11-07T04:28:23.584Z,7.85
2023-11-07T04:30:56.032Z,9.73
2023-11-07T04:33:27.356Z,10.70
2023-11-07T04:35:58.252Z,11.48
2023-11-07T04:38:28.866Z,12.10
2023-11-07T04:40:59.444Z,12.95
2023-11-07T04:43:32.345Z,13.40
2023-11-07T04:46:03.051Z,9.48
2023-11-07T04:48:37.462Z,9.02
2023-11-07T04:51:08.490Z,7.60
2023-11-07T04:53:40.802Z,4.95
2023-11-07T04:56:12.081Z,5.65
2023-11-07T04:58:56.690Z,5.60
2023-11-07T05:01:30.140Z,4.43
2023-11-07T05:04:00.998Z,4.70
2023-11-07T05:06:31.685Z,8.00
2023-11-07T05:09:02.764Z,5.40
2023-11-07T05:11:33.612Z,5.82
2023-11-07T05:14:03.751Z,6.15
2023-11-07T05:16:34.048Z,9.90
2023-11-07T05:19:04.480Z,12.00
2023-11-07T05:21:34.926Z,15.52
2023-11-07T05:24:09.440Z,11.15
2023-11-07T05:26:41.101Z,11.35
2023-11-07T05:29:11.483Z,13.68
2023-11-07T05:31:42.188Z,15.15
2023-11-07T05:34:12.382Z,14.98
2023-11-07T05:36:42.644Z,13.85
2023-11-07T05:39:12.560Z,10.25
2023-11-07T05:41:42.837Z,9.60
2023-11-07T05:44:14.597Z,11.15
2023-11-07T05:46:45.456Z,12.00
2023-11-07T05:49:16.026Z,11.98
2023-11-07T05:51:46.258Z,14.43
2023-11-07T05:54:17.813Z,12.27
2023-11-07T05:56:48.788Z,12.25
2023-11-07T05:59:19.612Z,11.77
2023-11-07T06:01:49.849Z,10.60
2023-11-07T06:04:38.647Z,8.10
2023-11-07T06:07:09.824Z,7.38
2023-11-07T06:09:41.358Z,6.80
2023-11-07T06:12:12.866Z,7.47
2023-11-07T06:14:44.399Z,6.72
2023-11-07T06:17:16.692Z,6.07
2023-11-07T06:19:49.741Z,5.00
2023-11-07T06:22:21.108Z,5.60
2023-11-07T06:24:51.989Z,5.95
2023-11-07T06:27:23.306Z,6.00
2023-11-07T06:29:53.625Z,6.72
2023-11-07T06:32:23.828Z,7.55
2023-11-07T06:34:54.540Z,9.02
2023-11-07T06:37:26.713Z,7.60
2023-11-07T06:39:57.517Z,10.80
2023-11-07T06:42:28.351Z,12.30
2023-11-07T06:44:58.974Z,8.80
2023-11-07T06:47:29.026Z,8.18
2023-11-07T06:49:59.195Z,8.73
2023-11-07T06:52:29.372Z,8.68
2023-11-07T06:54:59.610Z,10.43
2023-11-07T06:57:30.034Z,11.00
2023-11-07T07:00:00.316Z,7.72
2023-11-07T07:02:30.520Z,9.52
2023-11-07T07:05:01.721Z,5.82
2023-11-07T07:07:32.712Z,6.80
2023-11-07T07:10:04.819Z,5.78
2023-11-07T07:12:34.987Z,5.88
2023-11-07T07:15:08.651Z,5.60
2023-11-07T07:17:40.224Z,4.43
2023-11-07T07:20:14.600Z,2.80
2023-11-07T07:22:46.070Z,3.10
2023-11-07T07:25:23.593Z,2.55
2023-11-07T07:27:56.581Z,2.70
2023-11-07T07:30:30.177Z,2.33
2023-11-07T07:33:01.138Z,2.30
2023-11-07T07:35:35.857Z,2.47
2023-11-07T07:38:06.858Z,2.83
2023-11-07T07:40:37.520Z,2.78
2023-11-07T07:43:14.294Z,2.80
2023-11-07T07:45:45.233Z,4.13
2023-11-07T07:48:15.513Z,4.32
2023-11-07T07:50:49.351Z,5.55
2023-11-07T07:53:24.879Z,4.32
2023-11-07T07:55:58.436Z,4.35
2023-11-07T07:58:29.062Z,5.85
2023-11-07T08:00:59.442Z,8.20
2023-11-07T08:03:29.661Z,9.18
2023-11-07T08:06:00.409Z,10.43
2023-11-07T08:08:30.622Z,9.80
2023-11-07T08:11:00.820Z,9.52
2023-11-07T08:13:31.836Z,9.23
2023-11-07T08:16:10.184Z,8.20
2023-11-07T08:18:43.125Z,5.82
2023-11-07T08:21:13.426Z,5.88
2023-11-07T08:23:43.907Z,7.40
2023-11-07T08:26:14.581Z,7.43
2023-11-07T08:28:46.403Z,7.82
2023-11-07T08:31:16.797Z,7.40
2023-11-07T08:33:51.236Z,6.88
2023-11-07T08:36:22.536Z,6.13
2023-11-07T08:38:52.904Z,5.47
2023-11-07T08:41:26.968Z,5.38
2023-11-07T08:43:57.581Z,5.05
2023-11-07T08:46:28.837Z,5.65
2023-11-07T08:48:59.450Z,6.30
2023-11-07T08:51:31.396Z,7.72
2023-11-07T08:54:02.084Z,6.63
2023-11-07T08:56:32.003Z,7.38
2023-11-07T08:59:02.185Z,5.22
2023-11-07T09:01:32.998Z,4.00
2023-11-07T09:04:06.703Z,3.65
2023-11-07T09:06:41.094Z,3.50
2023-11-07T09:09:17.289Z,3.75
2023-11-07T09:11:50.049Z,3.50
2023-11-07T09:14:21.528Z,3.88
2023-11-07T09:16:52.837Z,5.75
2023-11-07T09:19:23.133Z,5.82
2023-11-07T09:21:54.065Z,5.13
2023-11-07T09:27:13.004Z,4.18
2023-11-07T09:29:44.361Z,5.03
2023-11-07T09:32:15.427Z,4.60
2023-11-07T09:34:46.090Z,5.60
2023-11-07T09:37:17.877Z,4.15
2023-11-07T09:39:48.808Z,6.32
2023-11-07T09:42:19.856Z,8.27
2023-11-07T09:44:53.555Z,12.20
2023-11-07T09:47:25.881Z,12.82
2023-11-07T09:49:59.183Z,11.98
2023-11-07T09:52:33.007Z,13.07
2023-11-07T09:55:11.976Z,10.05
2023-11-07T09:58:12.466Z,10.27
2023-11-07T10:00:47.834Z,11.07
2023-11-07T10:03:18.359Z,11.13
2023-11-07T10:05:53.590Z,9.75
2023-11-07T10:08:28.153Z,11.50
2023-11-07T10:11:18.342Z,12.05
2023-11-07T10:14:07.866Z,9.88
2023-11-07T10:16:44.200Z,9.77
2023-11-07T10:19:21.843Z,6.47
2023-11-07T10:21:55.032Z,7.13
2023-11-07T10:24:25.327Z,12.60
2023-11-07T10:27:04.554Z,9.30
2023-11-07T10:29:40.837Z,12.75
2023-11-07T10:32:15.018Z,11.93
2023-11-07T10:34:45.578Z,9.88
2023-11-07T10:37:21.839Z,10.65
2023-11-07T10:40:00.923Z,10.50
2023-11-07T10:42:37.836Z,9.18
2023-11-07T10:45:12.718Z,8.30
2023-11-07T10:47:45.556Z,10.85
2023-11-07T10:50:20.005Z,11.77
2023-11-07T10:52:50.804Z,10.73
2023-11-07T10:55:21.133Z,8.00
2023-11-07T10:58:00.800Z,8.68
2023-11-07T11:00:34.826Z,10.45
2023-11-07T11:03:13.551Z,9.20
2023-11-07T11:05:47.277Z,5.53
2023-11-07T11:08:22.811Z,8.85
2023-11-07T11:10:55.117Z,7.07
2023-11-07T11:13:27.417Z,8.15
2023-11-07T11:15:59.599Z,6.25
2023-11-07T11:18:49.182Z,7.07
2023-11-07T11:21:27.756Z,9.45
2023-11-07T11:24:40.849Z,10.52
2023-11-07T11:27:23.349Z,9.00
2023-11-07T11:29:54.240Z,11.82
2023-11-07T11:32:36.915Z,8.90
2023-11-07T11:35:20.119Z,9.70
2023-11-07T11:38:16.995Z,8.38
2023-11-07T11:41:04.419Z,10.05
2023-11-07T11:43:59.537Z,15.05
2023-11-07T11:46:40.617Z,8.55
2023-11-07T11:49:13.858Z,9.32
2023-11-07T11:51:46.511Z,8.80
2023-11-07T11:54:21.174Z,9.65
2023-11-07T11:56:56.407Z,10.40
2023-11-07T11:59:28.599Z,7.97
2023-11-07T12:02:06.949Z,5.90
2023-11-07T12:04:51.738Z,6.63
2023-11-07T12:07:26.455Z,9.57
2023-11-07T12:10:00.523Z,7.07
2023-11-07T12:12:32.824Z,8.15
2023-11-07T12:15:05.968Z,11.43
2023-11-07T12:17:50.696Z,8.10
2023-11-07T12:20:22.411Z,11.55
2023-11-07T12:22:54.582Z,10.98
2023-11-07T12:25:31.115Z,7.65
2023-11-07T12:28:09.149Z,7.20
2023-11-07T12:30:40.392Z,8.98
2023-11-07T12:33:12.285Z,8.52
2023-11-07T12:35:42.740Z,7.78
2023-11-07T12:38:16.478Z,7.68
2023-11-07T12:40:46.824Z,8.95
2023-11-07T12:43:19.125Z,7.72
2023-11-07T12:45:51.413Z,8.18
2023-11-07T12:48:31.008Z,10.05
2023-11-07T12:51:01.587Z,10.70
2023-11-07T12:53:33.244Z,7.10
2023-11-07T12:56:03.884Z,7.78
2023-11-07T12:58:34.200Z,10.40
2023-11-07T13:01:10.017Z,8.85
2023-11-07T13:03:41.255Z,6.72
2023-11-07T13:06:15.069Z,8.20
2023-11-07T13:08:49.935Z,9.00
2023-11-07T13:11:28.570Z,7.22
2023-11-07T13:13:59.665Z,9.02
2023-11-07T13:16:29.886Z,7.18
2023-11-07T13:19:00.088Z,8.65
2023-11-07T13:21:30.385Z,7.55
2023-11-07T13:24:00.603Z,9.05
2023-11-07T13:26:31.642Z,6.90
2023-11-07T13:29:02.320Z,6.47
2023-11-07T13:31:33.217Z,7.20
2023-11-07T13:34:03.258Z,7.35
2023-11-07T13:36:33.605Z,10.05
2023-11-07T13:39:06.427Z,8.93
2023-11-07T13:41:37.356Z,7.05
2023-11-07T13:44:12.798Z,5.97
2023-11-07T13:46:43.593Z,7.25
2023-11-07T13:49:14.583Z,8.15
2023-11-07T13:51:47.169Z,5.80
2023-11-07T13:54:17.932Z,7.75
2023-11-07T13:56:48.655Z,5.47
2023-11-07T13:59:20.694Z,6.97
2023-11-07T14:01:51.319Z,7.00
2023-11-07T14:04:21.469Z,8.98
2023-11-07T14:06:52.735Z,7.70
2023-11-07T14:09:26.106Z,7.32
2023-11-07T14:11:56.668Z,9.48
2023-11-07T14:14:27.575Z,6.97
2023-11-07T14:16:57.744Z,6.47
2023-11-07T14:19:28.995Z,8.70
2023-11-07T14:21:59.407Z,7.82
2023-11-07T14:24:30.443Z,5.90
2023-11-07T14:27:01.295Z,6.68
2023-11-07T14:29:47.532Z,7.40
2023-11-07T14:32:23.197Z,5.82
2023-11-07T14:34:54.090Z,7.70
2023-11-07T14:37:25.845Z,6.57
2023-11-07T14:39:57.618Z,6.20
2023-11-07T14:42:30.434Z,7.07
2023-11-07T14:45:01.418Z,4.60
2023-11-07T14:47:31.738Z,6.43
2023-11-07T14:50:03.386Z,6.65
2023-11-07T14:52:34.423Z,7.80
2023-11-07T14:55:06.805Z,7.57
2023-11-07T14:57:37.465Z,7.45
2023-11-07T15:00:11.911Z,8.32
2023-11-07T15:02:43.278Z,11.45
2023-11-07T15:05:13.911Z,7.63
2023-11-07T15:07:44.643Z,7.25
2023-11-07T15:10:15.576Z,6.95
2023-11-07T15:12:46.134Z,7.78
2023-11-07T15:15:17.720Z,7.72
2023-11-07T15:17:51.906Z,8.90
2023-11-07T15:20:22.655Z,7.03
2023-11-07T15:22:52.790Z,7.13
2023-11-07T15:25:27.250Z,7.68
2023-11-07T15:27:58.008Z,5.95
2023-11-07T15:30:33.484Z,7.38
2023-11-07T15:33:06.290Z,10.13
2023-11-07T15:35:39.135Z,7.47
2023-11-07T15:38:09.712Z,8.57
2023-11-07T15:40:42.043Z,10.48
2023-11-07T15:43:13.723Z,7.25
2023-11-07T15:45:46.146Z,7.32
2023-11-07T15:48:16.845Z,7.53
2023-11-07T15:50:47.684Z,7.63
2023-11-07T15:53:18.328Z,6.25
2023-11-07T15:55:48.489Z,6.32
2023-11-07T15:58:19.483Z,6.93
2023-11-07T16:00:53.006Z,8.15
2023-11-07T16:03:24.073Z,6.78
2023-11-07T16:05:54.740Z,9.18
2023-11-07T16:08:26.985Z,5.00
2023-11-07T16:10:57.766Z,6.25
2023-11-07T16:13:29.887Z,6.13
2023-11-07T16:16:02.556Z,9.13
2023-11-07T16:18:34.082Z,6.45
2023-11-07T16:21:09.687Z,8.10
2023-11-07T16:29:02.231Z,5.20
2023-11-07T16:31:33.633Z,5.78
2023-11-07T16:34:03.969Z,9.93
2023-11-07T16:36:34.303Z,7.90
2023-11-07T16:39:05.747Z,7.28
2023-11-07T16:41:37.813Z,8.45
2023-11-07T16:44:08.931Z,5.97
2023-11-07T16:46:39.677Z,4.68
2023-11-07T16:49:09.939Z,5.70
2023-11-07T16:51:40.294Z,6.70
2023-11-07T16:54:11.261Z,5.90
2023-11-07T16:56:42.559Z,6.85
2023-11-07T16:59:14.134Z,7.07
2023-11-07T17:01:44.750Z,7.10
2023-11-07T17:04:15.044Z,7.57
2023-11-07T17:06:46.523Z,6.40
2023-11-07T17:09:18.562Z,5.93
2023-11-07T17:11:55.179Z,7.78
2023-11-07T17:14:25.558Z,7.32
2023-11-07T17:16:57.019Z,6.93
2023-11-07T17:19:28.007Z,7.00
2023-11-07T17:21:59.875Z,8.13
2023-11-07T17:24:30.450Z,6.90
2023-11-07T17:27:02.183Z,5.80
2023-11-07T17:29:34.153Z,7.22
2023-11-07T17:32:06.278Z,6.15
2023-11-07T17:34:37.398Z,6.35
2023-11-07T17:37:09.203Z,5.65
2023-11-07T17:39:40.570Z,8.43
2023-11-07T17:42:12.553Z,5.70
2023-11-07T17:44:44.978Z,8.32
2023-11-07T17:47:17.820Z,6.00
2023-11-07T17:49:49.998Z,7.10
2023-11-07T17:52:22.342Z,6.90
2023-11-07T17:54:54.909Z,8.55
2023-11-07T17:57:26.737Z,6.82
2023-11-07T17:59:57.680Z,6.03
2023-11-07T18:02:31.099Z,7.03
2023-11-07T18:05:01.297Z,6.47
2023-11-07T18:07:31.786Z,7.90
2023-11-07T18:10:02.345Z,6.25
2023-11-07T18:12:32.537Z,6.50
2023-11-07T18:15:03.228Z,8.18
2023-11-07T18:17:34.814Z,7.15
2023-11-07T18:20:09.385Z,6.60
2023-11-07T18:22:43.283Z,9.60
2023-11-07T18:25:15.375Z,6.22
2023-11-07T18:27:46.935Z,6.05
2023-11-07T18:30:17.924Z,6.60
2023-11-07T18:32:48.806Z,6.82
2023-11-07T18:35:19.043Z,7.32
2023-11-07T18:37:49.287Z,9.13
2023-11-07T18:40:20.720Z,7.40
2023-11-07T18:42:51.981Z,7.40
2023-11-07T18:45:22.589Z,6.10
2023-11-07T18:47:54.098Z,7.88
2023-11-07T18:50:24.585Z,8.13
2023-11-07T18:52:55.920Z,6.75
2023-11-07T18:55:27.098Z,7.22
2023-11-07T18:57:58.490Z,7.47
2023-11-07T19:00:29.349Z,6.90
2023-11-07T19:02:59.612Z,7.60
2023-11-07T19:05:30.176Z,6.70
2023-11-07T19:08:00.564Z,7.93
2023-11-07T19:10:31.027Z,8.35
2023-11-07T19:13:01.207Z,6.72
2023-11-07T19:15:31.824Z,6.53
2023-11-07T19:18:02.587Z,6.60
2023-11-07T19:20:33.769Z,7.47
2023-11-07T19:23:04.885Z,6.47
2023-11-07T19:25:35.802Z,6.35
2023-11-07T19:28:06.076Z,7.47
2023-11-07T19:30:36.252Z,6.35
2023-11-07T19:33:06.928Z,7.00
2023-11-07T19:35:38.353Z,7.60
2023-11-07T19:38:08.573Z,6.70
2023-11-07T19:40:41.714Z,7.38
2023-11-07T19:43:12.464Z,5.53
2023-11-07T19:45:45.799Z,7.22
2023-11-07T19:48:17.049Z,8.05
2023-11-07T19:50:49.286Z,8.00
2023-11-07T19:53:19.540Z,7.93
2023-11-07T19:55:50.194Z,7.78
2023-11-07T19:58:21.607Z,6.75
2023-11-07T20:00:55.277Z,7.82
2023-11-07T20:03:31.845Z,7.95
2023-11-07T20:06:02.115Z,6.10
2023-11-07T20:08:32.983Z,8.85
2023-11-07T20:11:06.295Z,7.57
2023-11-07T20:13:37.416Z,6.40
2023-11-07T20:16:10.895Z,7.03
2023-11-07T20:18:42.163Z,9.35
2023-11-07T20:21:12.999Z,7.75
2023-11-07T20:23:44.858Z,8.95
2023-11-07T20:26:15.053Z,8.98
2023-11-07T20:28:46.606Z,8.70
2023-11-07T20:33:54.026Z,7.82
2023-11-07T20:36:25.231Z,9.45
2023-11-07T20:38:56.706Z,7.22
2023-11-07T20:41:27.042Z,6.63
2023-11-07T20:43:57.740Z,8.30
2023-11-07T20:46:33.801Z,8.20
2023-11-07T20:49:09.304Z,7.78
2023-11-07T20:51:40.583Z,7.85
2023-11-07T20:54:15.204Z,8.45
2023-11-07T20:56:46.786Z,6.50
2023-11-07T20:59:17.269Z,9.73
2023-11-07T21:01:47.916Z,8.68
2023-11-07T21:04:18.462Z,8.20
2023-11-07T21:06:48.693Z,6.95
2023-11-07T21:09:20.108Z,8.38
2023-11-07T21:11:52.492Z,8.85
2023-11-07T21:14:23.684Z,8.85
2023-11-07T21:16:53.852Z,9.40
2023-11-07T21:19:27.146Z,9.18
2023-11-07T21:22:02.276Z,8.18
2023-11-07T21:24:34.133Z,9.82
2023-11-07T21:27:06.034Z,6.72
2023-11-07T21:29:36.663Z,8.52
2023-11-07T21:32:08.120Z,8.07
2023-11-07T21:34:39.865Z,8.63
2023-11-07T21:37:10.583Z,7.43
2023-11-07T21:39:42.477Z,8.35
2023-11-07T21:42:12.768Z,7.03
2023-11-07T21:44:44.988Z,7.15
2023-11-07T21:47:19.240Z,8.43
2023-11-07T21:49:49.875Z,8.57
2023-11-07T21:52:20.532Z,9.93
2023-11-07T21:54:51.473Z,8.73
2023-11-07T21:57:22.660Z,8.30
2023-11-07T21:59:53.716Z,9.38
2023-11-07T22:02:24.658Z,8.20
2023-11-07T22:04:56.301Z,10.15
2023-11-07T22:07:27.830Z,8.73
2023-11-07T22:09:59.316Z,9.60
2023-11-07T22:12:29.779Z,10.25
2023-11-07T22:15:00.164Z,8.48
2023-11-07T22:17:31.412Z,9.45
2023-11-07T22:20:01.798Z,9.23
2023-11-07T22:22:32.787Z,12.50
2023-11-07T22:25:03.739Z,11.43
2023-11-07T22:27:37.527Z,12.88
2023-11-07T22:30:12.352Z,13.35
2023-11-07T22:32:47.580Z,12.95
2023-11-07T22:37:49.525Z,10.52
2023-11-07T22:40:20.577Z,9.95
2023-11-07T22:42:51.762Z,11.13
2023-11-07T22:45:22.094Z,11.43
2023-11-07T22:47:52.663Z,10.77
2023-11-07T22:50:22.865Z,12.90
2023-11-07T22:52:54.036Z,14.82
2023-11-07T22:55:24.781Z,13.75
2023-11-07T22:57:54.928Z,14.07
2023-11-07T23:00:33.029Z,14.00
2023-11-07T23:03:06.739Z,14.00
2023-11-07T23:05:39.479Z,11.77
2023-11-07T23:08:12.968Z,11.30
2023-11-07T23:10:45.104Z,10.20
2023-11-07T23:13:17.936Z,12.35
2023-11-07T23:15:52.883Z,12.18
2023-11-07T23:18:25.037Z,10.02
2023-11-07T23:20:55.649Z,11.50
2023-11-07T23:23:28.010Z,9.70
2023-11-07T23:25:59.234Z,9.75
2023-11-07T23:28:29.932Z,10.25
2023-11-07T23:31:02.030Z,9.85
2023-11-07T23:33:32.906Z,10.10
2023-11-07T23:36:03.863Z,11.15
2023-11-07T23:38:35.219Z,9.50
2023-11-07T23:41:06.609Z,9.48
2023-11-07T23:43:37.175Z,11.35
2023-11-07T23:46:07.437Z,11.30
2023-11-07T23:48:37.824Z,9.93
2023-11-07T23:51:14.488Z,8.07
2023-11-07T23:53:44.429Z,10.10
2023-11-07T23:56:15.327Z,9.52
2023-11-07T23:58:46.263Z,11.00
